Terminal Aerodrome Forecast
Issued by NWS

Home | Current Version | Previous Version | Text Only | Print | Product List | Glossary Off
Versions: 1 2 3 4 5 6 7 8 9 10 11 12 13 14 15 16 17 18 19 20 21 22 23 24 25 26 27 28 29 30 31 32 33 34 35 36 37 38 39 40 41 42 43 44
000 FTUS41 KGYX 262320 TAFMHT TAF KMHT 262320Z 2700/2724 09008KT P6SM SCT080 BKN250 FM270600 12003KT P6SM SCT025 OVC050 TEMPO 2706/2710 P6SM -TSRA BKN025 OVC050CB FM271300 00000KT P6SM BKN100 BKN250=

USA.gov is the U.S. government's official web portal to all federal, state and local government web resources and services.